sensor_id;sensor_type;location;lat;lon;timestamp;P1;durP1;ratioP1;P2;durP2;ratioP2
12469;SDS011;36499;46.484;13.832;2023-07-28T00:00:12;2.70;;;1.70;;
12469;SDS011;36499;46.484;13.832;2023-07-28T00:02:39;2.33;;;1.73;;
12469;SDS011;36499;46.484;13.832;2023-07-28T00:05:06;2.93;;;1.73;;
12469;SDS011;36499;46.484;13.832;2023-07-28T00:07:33;2.37;;;2.00;;
12469;SDS011;36499;46.484;13.832;2023-07-28T00:10:01;2.07;;;1.87;;
12469;SDS011;36499;46.484;13.832;2023-07-28T00:12:29;2.33;;;1.70;;
12469;SDS011;36499;46.484;13.832;2023-07-28T00:14:57;1.80;;;1.70;;
12469;SDS011;36499;46.484;13.832;2023-07-28T00:17:25;2.10;;;1.80;;
12469;SDS011;36499;46.484;13.832;2023-07-28T00:19:52;3.80;;;2.00;;
12469;SDS011;36499;46.484;13.832;2023-07-28T00:22:19;2.30;;;1.80;;
12469;SDS011;36499;46.484;13.832;2023-07-28T00:24:46;2.23;;;1.83;;
12469;SDS011;36499;46.484;13.832;2023-07-28T00:27:13;2.10;;;1.90;;
12469;SDS011;36499;46.484;13.832;2023-07-28T00:29:40;6.23;;;1.90;;
12469;SDS011;36499;46.484;13.832;2023-07-28T00:32:09;2.37;;;1.87;;
12469;SDS011;36499;46.484;13.832;2023-07-28T00:34:36;4.20;;;1.87;;
12469;SDS011;36499;46.484;13.832;2023-07-28T00:37:03;4.07;;;1.80;;
12469;SDS011;36499;46.484;13.832;2023-07-28T00:39:30;4.00;;;2.13;;
12469;SDS011;36499;46.484;13.832;2023-07-28T00:41:57;6.37;;;2.00;;
12469;SDS011;36499;46.484;13.832;2023-07-28T00:44:24;3.37;;;1.80;;
12469;SDS011;36499;46.484;13.832;2023-07-28T00:46:51;2.43;;;1.70;;
12469;SDS011;36499;46.484;13.832;2023-07-28T00:49:20;4.00;;;1.80;;
12469;SDS011;36499;46.484;13.832;2023-07-28T00:51:48;5.03;;;1.80;;
12469;SDS011;36499;46.484;13.832;2023-07-28T00:54:17;1.73;;;1.63;;
12469;SDS011;36499;46.484;13.832;2023-07-28T00:56:44;1.70;;;1.60;;
12469;SDS011;36499;46.484;13.832;2023-07-28T00:59:14;2.00;;;1.70;;
12469;SDS011;36499;46.484;13.832;2023-07-28T01:01:41;2.60;;;2.03;;
12469;SDS011;36499;46.484;13.832;2023-07-28T01:04:08;2.33;;;2.00;;
12469;SDS011;36499;46.484;13.832;2023-07-28T01:06:40;1.83;;;1.73;;
12469;SDS011;36499;46.484;13.832;2023-07-28T01:09:16;2.60;;;1.83;;
12469;SDS011;36499;46.484;13.832;2023-07-28T01:11:53;5.27;;;2.10;;
12469;SDS011;36499;46.484;13.832;2023-07-28T01:14:21;3.00;;;1.60;;
12469;SDS011;36499;46.484;13.832;2023-07-28T01:16:48;2.43;;;1.80;;
12469;SDS011;36499;46.484;13.832;2023-07-28T01:19:16;2.20;;;2.00;;
12469;SDS011;36499;46.484;13.832;2023-07-28T01:21:48;2.10;;;1.77;;
12469;SDS011;36499;46.484;13.832;2023-07-28T01:24:34;4.30;;;2.03;;
12469;SDS011;36499;46.484;13.832;2023-07-28T01:27:16;2.73;;;1.83;;
12469;SDS011;36499;46.484;13.832;2023-07-28T01:29:44;2.40;;;2.00;;
12469;SDS011;36499;46.484;13.832;2023-07-28T01:32:12;1.97;;;1.87;;
12469;SDS011;36499;46.484;13.832;2023-07-28T01:34:40;3.73;;;1.87;;
12469;SDS011;36499;46.484;13.832;2023-07-28T01:37:07;4.30;;;1.80;;
12469;SDS011;36499;46.484;13.832;2023-07-28T01:39:34;2.20;;;2.00;;
12469;SDS011;36499;46.484;13.832;2023-07-28T01:42:01;2.40;;;2.20;;
12469;SDS011;36499;46.484;13.832;2023-07-28T01:44:30;4.50;;;2.00;;
12469;SDS011;36499;46.484;13.832;2023-07-28T01:46:57;2.70;;;2.00;;
12469;SDS011;36499;46.484;13.832;2023-07-28T01:49:24;2.00;;;1.80;;
12469;SDS011;36499;46.484;13.832;2023-07-28T01:51:51;3.50;;;1.80;;
12469;SDS011;36499;46.484;13.832;2023-07-28T01:54:18;4.23;;;1.90;;
12469;SDS011;36499;46.484;13.832;2023-07-28T01:56:45;3.30;;;2.10;;
12469;SDS011;36499;46.484;13.832;2023-07-28T01:59:12;2.67;;;1.73;;
12469;SDS011;36499;46.484;13.832;2023-07-28T02:01:40;2.77;;;1.80;;
12469;SDS011;36499;46.484;13.832;2023-07-28T02:04:09;2.30;;;2.10;;
12469;SDS011;36499;46.484;13.832;2023-07-28T02:06:36;2.20;;;1.80;;
12469;SDS011;36499;46.484;13.832;2023-07-28T02:09:03;2.67;;;2.23;;
12469;SDS011;36499;46.484;13.832;2023-07-28T02:11:30;2.10;;;1.90;;
12469;SDS011;36499;46.484;13.832;2023-07-28T02:13:57;4.00;;;1.80;;
12469;SDS011;36499;46.484;13.832;2023-07-28T02:16:24;1.93;;;1.70;;
12469;SDS011;36499;46.484;13.832;2023-07-28T02:18:53;2.90;;;1.83;;
12469;SDS011;36499;46.484;13.832;2023-07-28T02:21:20;1.80;;;1.70;;
12469;SDS011;36499;46.484;13.832;2023-07-28T02:23:48;2.50;;;1.90;;
12469;SDS011;36499;46.484;13.832;2023-07-28T02:26:15;2.40;;;2.00;;
12469;SDS011;36499;46.484;13.832;2023-07-28T02:28:42;2.20;;;2.00;;
12469;SDS011;36499;46.484;13.832;2023-07-28T02:31:09;2.47;;;1.87;;
12469;SDS011;36499;46.484;13.832;2023-07-28T02:33:36;2.27;;;2.07;;
12469;SDS011;36499;46.484;13.832;2023-07-28T02:36:05;2.63;;;2.00;;
12469;SDS011;36499;46.484;13.832;2023-07-28T02:38:32;2.13;;;1.90;;
12469;SDS011;36499;46.484;13.832;2023-07-28T02:40:59;2.10;;;1.80;;
12469;SDS011;36499;46.484;13.832;2023-07-28T02:43:29;2.23;;;1.90;;
12469;SDS011;36499;46.484;13.832;2023-07-28T02:45:56;3.80;;;2.00;;
12469;SDS011;36499;46.484;13.832;2023-07-28T02:48:24;3.27;;;2.10;;
12469;SDS011;36499;46.484;13.832;2023-07-28T02:50:51;3.63;;;2.10;;
12469;SDS011;36499;46.484;13.832;2023-07-28T02:53:20;3.40;;;2.27;;
12469;SDS011;36499;46.484;13.832;2023-07-28T02:55:47;6.93;;;1.97;;
12469;SDS011;36499;46.484;13.832;2023-07-28T02:58:15;3.10;;;2.23;;
12469;SDS011;36499;46.484;13.832;2023-07-28T03:00:42;5.20;;;2.17;;
12469;SDS011;36499;46.484;13.832;2023-07-28T03:03:11;2.77;;;2.07;;
12469;SDS011;36499;46.484;13.832;2023-07-28T03:05:39;3.13;;;2.03;;
12469;SDS011;36499;46.484;13.832;2023-07-28T03:08:06;1.90;;;1.80;;
12469;SDS011;36499;46.484;13.832;2023-07-28T03:10:35;3.30;;;2.30;;
12469;SDS011;36499;46.484;13.832;2023-07-28T03:13:02;1.93;;;1.80;;
12469;SDS011;36499;46.484;13.832;2023-07-28T03:15:29;2.30;;;2.00;;
12469;SDS011;36499;46.484;13.832;2023-07-28T03:17:56;2.03;;;1.83;;
12469;SDS011;36499;46.484;13.832;2023-07-28T03:20:23;2.10;;;1.80;;
12469;SDS011;36499;46.484;13.832;2023-07-28T03:22:50;2.80;;;2.27;;
12469;SDS011;36499;46.484;13.832;2023-07-28T03:25:17;3.07;;;2.50;;
12469;SDS011;36499;46.484;13.832;2023-07-28T03:27:46;4.23;;;2.13;;
12469;SDS011;36499;46.484;13.832;2023-07-28T03:30:13;2.97;;;2.30;;
12469;SDS011;36499;46.484;13.832;2023-07-28T03:32:40;2.53;;;2.33;;
12469;SDS011;36499;46.484;13.832;2023-07-28T03:35:08;2.20;;;2.00;;
12469;SDS011;36499;46.484;13.832;2023-07-28T03:37:35;3.10;;;1.93;;
12469;SDS011;36499;46.484;13.832;2023-07-28T03:40:02;2.30;;;1.93;;
12469;SDS011;36499;46.484;13.832;2023-07-28T03:42:30;2.97;;;2.20;;
12469;SDS011;36499;46.484;13.832;2023-07-28T03:44:59;5.10;;;2.20;;
12469;SDS011;36499;46.484;13.832;2023-07-28T03:47:26;2.70;;;2.40;;
12469;SDS011;36499;46.484;13.832;2023-07-28T03:49:53;2.37;;;2.00;;
12469;SDS011;36499;46.484;13.832;2023-07-28T03:52:20;4.20;;;2.00;;
12469;SDS011;36499;46.484;13.832;2023-07-28T03:54:47;2.47;;;1.90;;
12469;SDS011;36499;46.484;13.832;2023-07-28T03:57:14;2.80;;;2.20;;
12469;SDS011;36499;46.484;13.832;2023-07-28T03:59:41;3.90;;;2.33;;
12469;SDS011;36499;46.484;13.832;2023-07-28T04:02:10;3.87;;;2.70;;
12469;SDS011;36499;46.484;13.832;2023-07-28T04:04:37;4.00;;;2.57;;
12469;SDS011;36499;46.484;13.832;2023-07-28T04:07:04;4.40;;;2.27;;
12469;SDS011;36499;46.484;13.832;2023-07-28T04:09:31;2.40;;;2.20;;
12469;SDS011;36499;46.484;13.832;2023-07-28T04:11:58;3.33;;;2.53;;
12469;SDS011;36499;46.484;13.832;2023-07-28T04:14:25;7.43;;;2.57;;
12469;SDS011;36499;46.484;13.832;2023-07-28T04:16:52;4.17;;;2.43;;
12469;SDS011;36499;46.484;13.832;2023-07-28T04:19:21;3.17;;;2.30;;
12469;SDS011;36499;46.484;13.832;2023-07-28T04:21:48;3.20;;;2.83;;
12469;SDS011;36499;46.484;13.832;2023-07-28T04:24:15;2.93;;;2.30;;
12469;SDS011;36499;46.484;13.832;2023-07-28T04:26:42;2.50;;;2.30;;
12469;SDS011;36499;46.484;13.832;2023-07-28T04:29:13;3.03;;;2.30;;
12469;SDS011;36499;46.484;13.832;2023-07-28T04:31:43;3.27;;;2.70;;
12469;SDS011;36499;46.484;13.832;2023-07-28T04:34:10;3.20;;;2.67;;
12469;SDS011;36499;46.484;13.832;2023-07-28T04:36:39;3.07;;;2.27;;
12469;SDS011;36499;46.484;13.832;2023-07-28T04:39:06;3.30;;;2.47;;
12469;SDS011;36499;46.484;13.832;2023-07-28T04:41:33;5.10;;;2.37;;
12469;SDS011;36499;46.484;13.832;2023-07-28T04:44:00;3.87;;;2.80;;
12469;SDS011;36499;46.484;13.832;2023-07-28T04:46:27;3.10;;;2.40;;
12469;SDS011;36499;46.484;13.832;2023-07-28T04:48:54;4.10;;;2.57;;
12469;SDS011;36499;46.484;13.832;2023-07-28T04:51:23;3.70;;;2.90;;
12469;SDS011;36499;46.484;13.832;2023-07-28T04:53:51;4.77;;;2.90;;
12469;SDS011;36499;46.484;13.832;2023-07-28T04:56:18;2.83;;;2.57;;
12469;SDS011;36499;46.484;13.832;2023-07-28T04:58:45;2.90;;;2.60;;
12469;SDS011;36499;46.484;13.832;2023-07-28T05:01:12;2.93;;;2.57;;
12469;SDS011;36499;46.484;13.832;2023-07-28T05:03:39;3.07;;;2.70;;
12469;SDS011;36499;46.484;13.832;2023-07-28T05:06:06;3.27;;;2.47;;
12469;SDS011;36499;46.484;13.832;2023-07-28T05:08:34;2.53;;;2.33;;
12469;SDS011;36499;46.484;13.832;2023-07-28T05:11:02;5.93;;;2.57;;
12469;SDS011;36499;46.484;13.832;2023-07-28T05:13:29;2.77;;;2.57;;
12469;SDS011;36499;46.484;13.832;2023-07-28T05:15:56;2.77;;;2.47;;
12469;SDS011;36499;46.484;13.832;2023-07-28T05:18:24;3.03;;;2.77;;
12469;SDS011;36499;46.484;13.832;2023-07-28T05:20:52;4.53;;;2.40;;
12469;SDS011;36499;46.484;13.832;2023-07-28T05:23:19;2.80;;;2.60;;
12469;SDS011;36499;46.484;13.832;2023-07-28T05:25:47;2.77;;;2.40;;
12469;SDS011;36499;46.484;13.832;2023-07-28T05:28:15;2.97;;;2.20;;
12469;SDS011;36499;46.484;13.832;2023-07-28T05:30:42;2.40;;;2.20;;
12469;SDS011;36499;46.484;13.832;2023-07-28T05:33:09;3.83;;;2.50;;
12469;SDS011;36499;46.484;13.832;2023-07-28T05:35:37;4.30;;;2.47;;
12469;SDS011;36499;46.484;13.832;2023-07-28T05:38:04;4.57;;;2.70;;
12469;SDS011;36499;46.484;13.832;2023-07-28T05:40:31;2.90;;;2.70;;
12469;SDS011;36499;46.484;13.832;2023-07-28T05:42:58;2.80;;;2.40;;
12469;SDS011;36499;46.484;13.832;2023-07-28T05:45:26;3.70;;;2.70;;
12469;SDS011;36499;46.484;13.832;2023-07-28T05:47:53;3.13;;;2.47;;
12469;SDS011;36499;46.484;13.832;2023-07-28T05:50:20;2.70;;;2.50;;
12469;SDS011;36499;46.484;13.832;2023-07-28T05:52:47;8.23;;;2.87;;
12469;SDS011;36499;46.484;13.832;2023-07-28T05:55:14;4.13;;;2.57;;
12469;SDS011;36499;46.484;13.832;2023-07-28T05:57:42;3.00;;;2.70;;
12469;SDS011;36499;46.484;13.832;2023-07-28T06:00:09;2.93;;;2.73;;
12469;SDS011;36499;46.484;13.832;2023-07-28T06:02:38;2.90;;;2.60;;
12469;SDS011;36499;46.484;13.832;2023-07-28T06:05:06;3.93;;;2.47;;
12469;SDS011;36499;46.484;13.832;2023-07-28T06:07:34;3.20;;;2.90;;
12469;SDS011;36499;46.484;13.832;2023-07-28T06:10:01;4.20;;;2.37;;
12469;SDS011;36499;46.484;13.832;2023-07-28T06:12:29;3.73;;;2.47;;
12469;SDS011;36499;46.484;13.832;2023-07-28T06:14:56;2.73;;;2.50;;
12469;SDS011;36499;46.484;13.832;2023-07-28T06:17:23;3.87;;;2.80;;
12469;SDS011;36499;46.484;13.832;2023-07-28T06:19:53;2.60;;;2.40;;
12469;SDS011;36499;46.484;13.832;2023-07-28T06:22:21;2.80;;;2.50;;
12469;SDS011;36499;46.484;13.832;2023-07-28T06:24:48;3.47;;;2.63;;
12469;SDS011;36499;46.484;13.832;2023-07-28T06:27:15;4.10;;;2.43;;
12469;SDS011;36499;46.484;13.832;2023-07-28T06:29:42;2.83;;;2.47;;
12469;SDS011;36499;46.484;13.832;2023-07-28T06:32:09;6.00;;;3.07;;
12469;SDS011;36499;46.484;13.832;2023-07-28T06:34:37;3.13;;;2.63;;
12469;SDS011;36499;46.484;13.832;2023-07-28T06:37:05;3.23;;;2.43;;
12469;SDS011;36499;46.484;13.832;2023-07-28T06:39:32;3.40;;;2.60;;
12469;SDS011;36499;46.484;13.832;2023-07-28T06:41:59;2.70;;;2.40;;
12469;SDS011;36499;46.484;13.832;2023-07-28T06:44:26;5.30;;;2.60;;
12469;SDS011;36499;46.484;13.832;2023-07-28T06:46:53;2.80;;;2.50;;
12469;SDS011;36499;46.484;13.832;2023-07-28T06:49:20;2.67;;;2.27;;
12469;SDS011;36499;46.484;13.832;2023-07-28T06:51:47;2.57;;;2.37;;
12469;SDS011;36499;46.484;13.832;2023-07-28T06:54:16;2.40;;;2.20;;
12469;SDS011;36499;46.484;13.832;2023-07-28T06:56:43;3.27;;;2.33;;
12469;SDS011;36499;46.484;13.832;2023-07-28T06:59:10;3.37;;;2.30;;
12469;SDS011;36499;46.484;13.832;2023-07-28T07:01:37;2.80;;;2.30;;
12469;SDS011;36499;46.484;13.832;2023-07-28T07:04:04;3.10;;;2.80;;
12469;SDS011;36499;46.484;13.832;2023-07-28T07:06:31;4.57;;;3.40;;
12469;SDS011;36499;46.484;13.832;2023-07-28T07:08:58;6.47;;;4.10;;
12469;SDS011;36499;46.484;13.832;2023-07-28T07:11:26;5.83;;;3.83;;
12469;SDS011;36499;46.484;13.832;2023-07-28T07:13:54;3.70;;;2.70;;
12469;SDS011;36499;46.484;13.832;2023-07-28T07:16:21;2.80;;;2.33;;
12469;SDS011;36499;46.484;13.832;2023-07-28T07:18:50;2.30;;;2.10;;
12469;SDS011;36499;46.484;13.832;2023-07-28T07:21:17;3.13;;;2.50;;
12469;SDS011;36499;46.484;13.832;2023-07-28T07:23:44;2.67;;;2.40;;
12469;SDS011;36499;46.484;13.832;2023-07-28T07:26:12;2.97;;;2.37;;
12469;SDS011;36499;46.484;13.832;2023-07-28T07:28:40;2.40;;;2.20;;
12469;SDS011;36499;46.484;13.832;2023-07-28T07:31:11;2.60;;;2.30;;
12469;SDS011;36499;46.484;13.832;2023-07-28T07:33:39;4.67;;;2.40;;
12469;SDS011;36499;46.484;13.832;2023-07-28T07:36:11;5.90;;;2.43;;
12469;SDS011;36499;46.484;13.832;2023-07-28T07:38:38;3.43;;;2.20;;
12469;SDS011;36499;46.484;13.832;2023-07-28T07:41:06;7.13;;;2.33;;
12469;SDS011;36499;46.484;13.832;2023-07-28T07:43:35;2.43;;;2.20;;
12469;SDS011;36499;46.484;13.832;2023-07-28T07:46:04;3.13;;;2.10;;
12469;SDS011;36499;46.484;13.832;2023-07-28T07:48:31;2.43;;;2.20;;
12469;SDS011;36499;46.484;13.832;2023-07-28T07:50:58;2.53;;;2.00;;
12469;SDS011;36499;46.484;13.832;2023-07-28T07:53:25;3.60;;;2.07;;
12469;SDS011;36499;46.484;13.832;2023-07-28T07:55:52;2.67;;;1.93;;
12469;SDS011;36499;46.484;13.832;2023-07-28T07:58:19;3.20;;;1.90;;
12469;SDS011;36499;46.484;13.832;2023-07-28T08:00:46;3.03;;;2.33;;
12469;SDS011;36499;46.484;13.832;2023-07-28T08:03:15;2.80;;;2.47;;
12469;SDS011;36499;46.484;13.832;2023-07-28T08:05:42;3.13;;;1.93;;
12469;SDS011;36499;46.484;13.832;2023-07-28T08:08:09;3.30;;;2.40;;
12469;SDS011;36499;46.484;13.832;2023-07-28T08:10:37;2.53;;;2.33;;
12469;SDS011;36499;46.484;13.832;2023-07-28T08:13:05;5.43;;;2.23;;
12469;SDS011;36499;46.484;13.832;2023-07-28T08:15:32;2.67;;;2.47;;
12469;SDS011;36499;46.484;13.832;2023-07-28T08:17:59;2.53;;;2.30;;
12469;SDS011;36499;46.484;13.832;2023-07-28T08:20:28;2.30;;;2.10;;
12469;SDS011;36499;46.484;13.832;2023-07-28T08:22:55;2.40;;;2.20;;
12469;SDS011;36499;46.484;13.832;2023-07-28T08:25:22;3.33;;;2.30;;
12469;SDS011;36499;46.484;13.832;2023-07-28T08:27:49;3.03;;;2.00;;
12469;SDS011;36499;46.484;13.832;2023-07-28T08:30:16;2.97;;;2.50;;
12469;SDS011;36499;46.484;13.832;2023-07-28T08:32:43;2.77;;;2.33;;
12469;SDS011;36499;46.484;13.832;2023-07-28T08:35:10;3.10;;;2.17;;
12469;SDS011;36499;46.484;13.832;2023-07-28T08:37:39;2.73;;;2.30;;
12469;SDS011;36499;46.484;13.832;2023-07-28T08:40:06;2.47;;;2.20;;
12469;SDS011;36499;46.484;13.832;2023-07-28T08:42:36;6.43;;;2.30;;
12469;SDS011;36499;46.484;13.832;2023-07-28T08:45:05;2.70;;;2.23;;
12469;SDS011;36499;46.484;13.832;2023-07-28T08:47:34;2.20;;;2.00;;
12469;SDS011;36499;46.484;13.832;2023-07-28T08:50:02;2.50;;;2.27;;
12469;SDS011;36499;46.484;13.832;2023-07-28T08:52:31;2.43;;;2.20;;
12469;SDS011;36499;46.484;13.832;2023-07-28T08:54:59;2.50;;;2.20;;
12469;SDS011;36499;46.484;13.832;2023-07-28T08:57:27;2.33;;;2.13;;
12469;SDS011;36499;46.484;13.832;2023-07-28T08:59:54;2.30;;;2.10;;
12469;SDS011;36499;46.484;13.832;2023-07-28T09:02:21;2.53;;;2.17;;
12469;SDS011;36499;46.484;13.832;2023-07-28T09:04:49;2.47;;;2.27;;
12469;SDS011;36499;46.484;13.832;2023-07-28T09:07:16;2.50;;;2.30;;
12469;SDS011;36499;46.484;13.832;2023-07-28T09:09:43;2.57;;;2.37;;
12469;SDS011;36499;46.484;13.832;2023-07-28T09:12:12;2.83;;;2.17;;
12469;SDS011;36499;46.484;13.832;2023-07-28T09:14:39;5.07;;;2.40;;
12469;SDS011;36499;46.484;13.832;2023-07-28T09:17:07;3.20;;;2.70;;
12469;SDS011;36499;46.484;13.832;2023-07-28T09:19:48;4.10;;;3.50;;
12469;SDS011;36499;46.484;13.832;2023-07-28T09:22:17;2.30;;;2.10;;
12469;SDS011;36499;46.484;13.832;2023-07-28T09:24:45;2.50;;;2.30;;
12469;SDS011;36499;46.484;13.832;2023-07-28T09:27:20;3.53;;;2.20;;
12469;SDS011;36499;46.484;13.832;2023-07-28T09:29:49;3.67;;;2.27;;
12469;SDS011;36499;46.484;13.832;2023-07-28T09:32:26;2.87;;;2.27;;
12469;SDS011;36499;46.484;13.832;2023-07-28T09:35:05;3.07;;;2.20;;
12469;SDS011;36499;46.484;13.832;2023-07-28T09:37:37;4.00;;;2.30;;
12469;SDS011;36499;46.484;13.832;2023-07-28T09:40:07;6.50;;;2.37;;
12469;SDS011;36499;46.484;13.832;2023-07-28T09:42:38;4.80;;;2.13;;
12469;SDS011;36499;46.484;13.832;2023-07-28T09:45:06;2.33;;;2.13;;
12469;SDS011;36499;46.484;13.832;2023-07-28T09:47:36;3.93;;;2.30;;
12469;SDS011;36499;46.484;13.832;2023-07-28T09:50:06;6.73;;;2.47;;
12469;SDS011;36499;46.484;13.832;2023-07-28T09:52:38;2.87;;;2.10;;
12469;SDS011;36499;46.484;13.832;2023-07-28T09:55:09;2.70;;;2.40;;
12469;SDS011;36499;46.484;13.832;2023-07-28T09:57:41;2.70;;;2.50;;
12469;SDS011;36499;46.484;13.832;2023-07-28T10:00:16;2.17;;;1.90;;
12469;SDS011;36499;46.484;13.832;2023-07-28T10:02:45;2.40;;;2.20;;
12469;SDS011;36499;46.484;13.832;2023-07-28T10:05:13;2.47;;;2.27;;
12469;SDS011;36499;46.484;13.832;2023-07-28T10:07:42;5.07;;;2.50;;
12469;SDS011;36499;46.484;13.832;2023-07-28T10:10:11;3.00;;;2.17;;
12469;SDS011;36499;46.484;13.832;2023-07-28T10:12:48;4.23;;;2.60;;
12469;SDS011;36499;46.484;13.832;2023-07-28T10:15:17;3.03;;;2.30;;
12469;SDS011;36499;46.484;13.832;2023-07-28T10:17:46;3.77;;;2.30;;
12469;SDS011;36499;46.484;13.832;2023-07-28T10:20:27;2.23;;;2.03;;
12469;SDS011;36499;46.484;13.832;2023-07-28T10:23:04;2.57;;;2.37;;
12469;SDS011;36499;46.484;13.832;2023-07-28T10:25:33;4.10;;;2.50;;
12469;SDS011;36499;46.484;13.832;2023-07-28T10:28:04;3.17;;;2.57;;
12469;SDS011;36499;46.484;13.832;2023-07-28T10:30:36;3.13;;;2.33;;
12469;SDS011;36499;46.484;13.832;2023-07-28T10:33:05;3.10;;;2.80;;
12469;SDS011;36499;46.484;13.832;2023-07-28T10:35:33;3.37;;;2.47;;
12469;SDS011;36499;46.484;13.832;2023-07-28T10:41:08;4.53;;;3.40;;
12469;SDS011;36499;46.484;13.832;2023-07-28T10:43:39;3.00;;;2.70;;
12469;SDS011;36499;46.484;13.832;2023-07-28T10:46:08;3.40;;;3.10;;
12469;SDS011;36499;46.484;13.832;2023-07-28T10:48:41;3.10;;;2.83;;
12469;SDS011;36499;46.484;13.832;2023-07-28T10:51:09;3.20;;;2.70;;
12469;SDS011;36499;46.484;13.832;2023-07-28T10:53:37;3.10;;;2.40;;
12469;SDS011;36499;46.484;13.832;2023-07-28T10:56:05;2.83;;;2.50;;
12469;SDS011;36499;46.484;13.832;2023-07-28T10:58:35;5.50;;;3.80;;
12469;SDS011;36499;46.484;13.832;2023-07-28T11:01:04;3.00;;;2.70;;
12469;SDS011;36499;46.484;13.832;2023-07-28T11:03:32;3.40;;;2.83;;
12469;SDS011;36499;46.484;13.832;2023-07-28T11:05:59;4.93;;;3.00;;
12469;SDS011;36499;46.484;13.832;2023-07-28T11:08:26;5.30;;;2.70;;
12469;SDS011;36499;46.484;13.832;2023-07-28T11:10:53;3.13;;;2.47;;
12469;SDS011;36499;46.484;13.832;2023-07-28T11:13:21;3.17;;;2.20;;
12469;SDS011;36499;46.484;13.832;2023-07-28T11:15:50;3.07;;;2.67;;
12469;SDS011;36499;46.484;13.832;2023-07-28T11:18:19;3.03;;;2.80;;
12469;SDS011;36499;46.484;13.832;2023-07-28T11:20:47;3.93;;;2.73;;
12469;SDS011;36499;46.484;13.832;2023-07-28T11:23:14;2.83;;;2.30;;
12469;SDS011;36499;46.484;13.832;2023-07-28T11:25:43;4.10;;;2.97;;
12469;SDS011;36499;46.484;13.832;2023-07-28T11:28:12;2.60;;;2.37;;
12469;SDS011;36499;46.484;13.832;2023-07-28T11:30:39;5.03;;;2.40;;
12469;SDS011;36499;46.484;13.832;2023-07-28T11:33:09;3.00;;;2.70;;
12469;SDS011;36499;46.484;13.832;2023-07-28T11:35:39;3.50;;;2.80;;
12469;SDS011;36499;46.484;13.832;2023-07-28T11:38:09;4.60;;;2.33;;
12469;SDS011;36499;46.484;13.832;2023-07-28T11:40:39;3.50;;;2.60;;
12469;SDS011;36499;46.484;13.832;2023-07-28T11:43:07;2.40;;;2.20;;
12469;SDS011;36499;46.484;13.832;2023-07-28T11:45:35;4.40;;;2.50;;
12469;SDS011;36499;46.484;13.832;2023-07-28T11:48:03;2.57;;;2.27;;
12469;SDS011;36499;46.484;13.832;2023-07-28T11:50:34;3.40;;;2.50;;
12469;SDS011;36499;46.484;13.832;2023-07-28T11:53:05;3.33;;;2.40;;
12469;SDS011;36499;46.484;13.832;2023-07-28T11:55:34;2.37;;;2.17;;
12469;SDS011;36499;46.484;13.832;2023-07-28T11:58:02;5.77;;;2.40;;
12469;SDS011;36499;46.484;13.832;2023-07-28T12:00:33;5.47;;;2.60;;
12469;SDS011;36499;46.484;13.832;2023-07-28T12:03:03;3.37;;;2.60;;
12469;SDS011;36499;46.484;13.832;2023-07-28T12:05:34;3.97;;;2.40;;
12469;SDS011;36499;46.484;13.832;2023-07-28T12:08:02;2.60;;;2.40;;
12469;SDS011;36499;46.484;13.832;2023-07-28T12:10:34;2.53;;;2.33;;
12469;SDS011;36499;46.484;13.832;2023-07-28T12:13:06;2.83;;;2.60;;
12469;SDS011;36499;46.484;13.832;2023-07-28T12:15:34;3.73;;;2.20;;
12469;SDS011;36499;46.484;13.832;2023-07-28T12:18:08;2.70;;;2.50;;
12469;SDS011;36499;46.484;13.832;2023-07-28T12:20:38;5.17;;;2.57;;
12469;SDS011;36499;46.484;13.832;2023-07-28T12:23:11;5.13;;;2.37;;
12469;SDS011;36499;46.484;13.832;2023-07-28T12:25:41;3.10;;;2.50;;
12469;SDS011;36499;46.484;13.832;2023-07-28T12:28:08;5.73;;;2.70;;
12469;SDS011;36499;46.484;13.832;2023-07-28T12:30:36;3.00;;;2.50;;
12469;SDS011;36499;46.484;13.832;2023-07-28T12:33:04;2.97;;;2.67;;
12469;SDS011;36499;46.484;13.832;2023-07-28T12:35:32;4.30;;;2.70;;
12469;SDS011;36499;46.484;13.832;2023-07-28T12:38:00;2.77;;;2.47;;
12469;SDS011;36499;46.484;13.832;2023-07-28T12:40:29;4.47;;;2.60;;
12469;SDS011;36499;46.484;13.832;2023-07-28T12:43:01;4.50;;;2.53;;
12469;SDS011;36499;46.484;13.832;2023-07-28T12:45:29;3.70;;;2.70;;
12469;SDS011;36499;46.484;13.832;2023-07-28T12:47:56;3.63;;;2.80;;
12469;SDS011;36499;46.484;13.832;2023-07-28T12:50:24;3.37;;;2.70;;
12469;SDS011;36499;46.484;13.832;2023-07-28T12:52:51;4.53;;;2.77;;
12469;SDS011;36499;46.484;13.832;2023-07-28T12:55:18;4.47;;;2.90;;
12469;SDS011;36499;46.484;13.832;2023-07-28T12:57:46;5.27;;;3.30;;
12469;SDS011;36499;46.484;13.832;2023-07-28T13:00:15;4.63;;;3.37;;
12469;SDS011;36499;46.484;13.832;2023-07-28T13:02:43;4.53;;;2.93;;
12469;SDS011;36499;46.484;13.832;2023-07-28T13:05:12;4.80;;;2.50;;
12469;SDS011;36499;46.484;13.832;2023-07-28T13:07:42;5.13;;;2.73;;
12469;SDS011;36499;46.484;13.832;2023-07-28T13:10:10;3.27;;;2.67;;
12469;SDS011;36499;46.484;13.832;2023-07-28T13:12:37;5.57;;;2.80;;
12469;SDS011;36499;46.484;13.832;2023-07-28T13:15:05;5.47;;;3.00;;
12469;SDS011;36499;46.484;13.832;2023-07-28T13:17:35;4.97;;;2.80;;
12469;SDS011;36499;46.484;13.832;2023-07-28T13:20:02;5.00;;;3.13;;
12469;SDS011;36499;46.484;13.832;2023-07-28T13:22:31;3.90;;;2.57;;
12469;SDS011;36499;46.484;13.832;2023-07-28T13:24:58;6.60;;;2.90;;
12469;SDS011;36499;46.484;13.832;2023-07-28T13:27:25;4.43;;;2.40;;
12469;SDS011;36499;46.484;13.832;2023-07-28T13:29:52;4.10;;;2.57;;
12469;SDS011;36499;46.484;13.832;2023-07-28T13:32:22;3.57;;;2.90;;
12469;SDS011;36499;46.484;13.832;2023-07-28T13:34:52;4.63;;;2.90;;
12469;SDS011;36499;46.484;13.832;2023-07-28T13:37:20;3.80;;;2.87;;
12469;SDS011;36499;46.484;13.832;2023-07-28T13:39:47;4.80;;;3.00;;
12469;SDS011;36499;46.484;13.832;2023-07-28T13:42:14;4.63;;;3.10;;
12469;SDS011;36499;46.484;13.832;2023-07-28T13:44:41;5.30;;;3.10;;
12469;SDS011;36499;46.484;13.832;2023-07-28T13:47:09;3.87;;;2.77;;
12469;SDS011;36499;46.484;13.832;2023-07-28T13:49:36;3.40;;;3.10;;
12469;SDS011;36499;46.484;13.832;2023-07-28T13:52:05;3.93;;;2.90;;
12469;SDS011;36499;46.484;13.832;2023-07-28T13:54:33;3.87;;;2.80;;
12469;SDS011;36499;46.484;13.832;2023-07-28T13:57:01;5.73;;;2.80;;
12469;SDS011;36499;46.484;13.832;2023-07-28T13:59:28;3.17;;;2.60;;
12469;SDS011;36499;46.484;13.832;2023-07-28T14:01:55;5.63;;;2.83;;
12469;SDS011;36499;46.484;13.832;2023-07-28T14:04:23;4.87;;;3.37;;
12469;SDS011;36499;46.484;13.832;2023-07-28T14:06:50;6.03;;;3.10;;
12469;SDS011;36499;46.484;13.832;2023-07-28T14:09:18;3.67;;;2.97;;
12469;SDS011;36499;46.484;13.832;2023-07-28T14:11:45;8.80;;;4.07;;
12469;SDS011;36499;46.484;13.832;2023-07-28T14:14:12;3.50;;;3.20;;
12469;SDS011;36499;46.484;13.832;2023-07-28T14:16:39;5.83;;;3.70;;
12469;SDS011;36499;46.484;13.832;2023-07-28T14:19:07;4.27;;;3.87;;
12469;SDS011;36499;46.484;13.832;2023-07-28T14:21:34;8.33;;;4.37;;
12469;SDS011;36499;46.484;13.832;2023-07-28T14:24:03;4.73;;;3.80;;
12469;SDS011;36499;46.484;13.832;2023-07-28T14:26:32;3.57;;;3.03;;
12469;SDS011;36499;46.484;13.832;2023-07-28T14:28:59;4.63;;;3.90;;
12469;SDS011;36499;46.484;13.832;2023-07-28T14:31:26;7.53;;;3.50;;
12469;SDS011;36499;46.484;13.832;2023-07-28T14:33:53;7.40;;;3.10;;
12469;SDS011;36499;46.484;13.832;2023-07-28T14:36:20;4.63;;;3.10;;
12469;SDS011;36499;46.484;13.832;2023-07-28T14:38:47;4.67;;;2.90;;
12469;SDS011;36499;46.484;13.832;2023-07-28T14:41:14;6.30;;;2.83;;